sensor_id;sensor_type;location;lat;lon;timestamp;P1;durP1;ratioP1;P2;durP2;ratioP2
54372;SDS011;69157;53.094;10.016;2023-10-08T00:01:35;1.23;;;0.60;;
54372;SDS011;69157;53.094;10.016;2023-10-08T00:04:07;1.92;;;0.73;;
54372;SDS011;69157;53.094;10.016;2023-10-08T00:06:33;1.23;;;0.50;;
54372;SDS011;69157;53.094;10.016;2023-10-08T00:09:00;1.38;;;0.55;;
54372;SDS011;69157;53.094;10.016;2023-10-08T00:11:33;0.77;;;0.55;;
54372;SDS011;69157;53.094;10.016;2023-10-08T00:13:59;1.60;;;0.80;;
54372;SDS011;69157;53.094;10.016;2023-10-08T00:16:26;0.57;;;0.50;;
54372;SDS011;69157;53.094;10.016;2023-10-08T00:18:53;3.67;;;0.80;;
54372;SDS011;69157;53.094;10.016;2023-10-08T00:21:28;3.63;;;0.70;;
54372;SDS011;69157;53.094;10.016;2023-10-08T00:23:56;0.68;;;0.60;;
54372;SDS011;69157;53.094;10.016;2023-10-08T00:26:27;3.30;;;1.30;;
54372;SDS011;69157;53.094;10.016;2023-10-08T00:28:57;3.38;;;0.85;;
54372;SDS011;69157;53.094;10.016;2023-10-08T00:31:24;4.00;;;0.77;;
54372;SDS011;69157;53.094;10.016;2023-10-08T00:33:55;1.23;;;0.85;;
54372;SDS011;69157;53.094;10.016;2023-10-08T00:36:21;1.27;;;0.90;;
54372;SDS011;69157;53.094;10.016;2023-10-08T00:38:49;2.42;;;0.73;;
54372;SDS011;69157;53.094;10.016;2023-10-08T00:41:18;1.90;;;1.00;;
54372;SDS011;69157;53.094;10.016;2023-10-08T00:43:47;2.05;;;0.75;;
54372;SDS011;69157;53.094;10.016;2023-10-08T00:46:13;1.15;;;0.60;;
54372;SDS011;69157;53.094;10.016;2023-10-08T00:48:52;5.72;;;0.93;;
54372;SDS011;69157;53.094;10.016;2023-10-08T00:51:22;2.83;;;0.60;;
54372;SDS011;69157;53.094;10.016;2023-10-08T00:53:54;1.27;;;0.75;;
54372;SDS011;69157;53.094;10.016;2023-10-08T00:56:27;2.25;;;0.80;;
54372;SDS011;69157;53.094;10.016;2023-10-08T00:59:14;1.58;;;0.77;;
54372;SDS011;69157;53.094;10.016;2023-10-08T01:01:43;2.38;;;0.80;;
54372;SDS011;69157;53.094;10.016;2023-10-08T01:04:20;5.07;;;0.77;;
54372;SDS011;69157;53.094;10.016;2023-10-08T01:06:52;3.75;;;0.98;;
54372;SDS011;69157;53.094;10.016;2023-10-08T01:09:24;2.22;;;0.90;;
54372;SDS011;69157;53.094;10.016;2023-10-08T01:12:13;1.30;;;0.60;;
54372;SDS011;69157;53.094;10.016;2023-10-08T01:14:55;1.40;;;0.82;;
54372;SDS011;69157;53.094;10.016;2023-10-08T01:17:32;3.45;;;0.88;;
54372;SDS011;69157;53.094;10.016;2023-10-08T01:20:10;3.13;;;1.02;;
54372;SDS011;69157;53.094;10.016;2023-10-08T01:22:55;1.67;;;0.68;;
54372;SDS011;69157;53.094;10.016;2023-10-08T01:25:22;4.47;;;1.05;;
54372;SDS011;69157;53.094;10.016;2023-10-08T01:27:55;4.30;;;0.93;;
54372;SDS011;69157;53.094;10.016;2023-10-08T01:30:21;1.88;;;0.88;;
54372;SDS011;69157;53.094;10.016;2023-10-08T01:32:47;4.82;;;0.85;;
54372;SDS011;69157;53.094;10.016;2023-10-08T01:35:13;2.25;;;0.80;;
54372;SDS011;69157;53.094;10.016;2023-10-08T01:37:51;4.05;;;1.00;;
54372;SDS011;69157;53.094;10.016;2023-10-08T01:40:18;3.03;;;0.90;;
54372;SDS011;69157;53.094;10.016;2023-10-08T01:42:44;3.80;;;1.25;;
54372;SDS011;69157;53.094;10.016;2023-10-08T01:45:11;3.40;;;0.90;;
54372;SDS011;69157;53.094;10.016;2023-10-08T01:47:45;1.67;;;0.82;;
54372;SDS011;69157;53.094;10.016;2023-10-08T01:50:17;2.47;;;1.00;;
54372;SDS011;69157;53.094;10.016;2023-10-08T01:52:49;2.50;;;1.17;;
54372;SDS011;69157;53.094;10.016;2023-10-08T01:55:18;6.40;;;1.25;;
54372;SDS011;69157;53.094;10.016;2023-10-08T01:57:45;3.65;;;1.33;;
54372;SDS011;69157;53.094;10.016;2023-10-08T02:00:11;1.77;;;1.00;;
54372;SDS011;69157;53.094;10.016;2023-10-08T02:02:39;3.05;;;1.20;;
54372;SDS011;69157;53.094;10.016;2023-10-08T02:05:08;3.40;;;1.30;;
54372;SDS011;69157;53.094;10.016;2023-10-08T02:07:38;7.50;;;1.55;;
54372;SDS011;69157;53.094;10.016;2023-10-08T02:10:04;4.57;;;1.30;;
54372;SDS011;69157;53.094;10.016;2023-10-08T02:12:32;3.05;;;1.08;;
54372;SDS011;69157;53.094;10.016;2023-10-08T02:14:58;6.25;;;1.20;;
54372;SDS011;69157;53.094;10.016;2023-10-08T02:17:27;1.83;;;1.08;;
54372;SDS011;69157;53.094;10.016;2023-10-08T02:19:53;2.45;;;1.10;;
54372;SDS011;69157;53.094;10.016;2023-10-08T02:22:20;5.85;;;1.20;;
54372;SDS011;69157;53.094;10.016;2023-10-08T02:24:46;2.60;;;1.15;;
54372;SDS011;69157;53.094;10.016;2023-10-08T02:27:15;2.00;;;1.25;;
54372;SDS011;69157;53.094;10.016;2023-10-08T02:29:41;3.30;;;1.52;;
54372;SDS011;69157;53.094;10.016;2023-10-08T02:32:08;4.90;;;1.30;;
54372;SDS011;69157;53.094;10.016;2023-10-08T02:34:34;4.00;;;1.50;;
54372;SDS011;69157;53.094;10.016;2023-10-08T02:37:00;2.60;;;1.10;;
54372;SDS011;69157;53.094;10.016;2023-10-08T02:39:28;5.80;;;1.20;;
54372;SDS011;69157;53.094;10.016;2023-10-08T02:41:57;2.80;;;1.30;;
54372;SDS011;69157;53.094;10.016;2023-10-08T02:44:25;6.30;;;1.35;;
54372;SDS011;69157;53.094;10.016;2023-10-08T02:46:51;2.90;;;1.02;;
54372;SDS011;69157;53.094;10.016;2023-10-08T02:49:18;2.20;;;1.23;;
54372;SDS011;69157;53.094;10.016;2023-10-08T02:51:51;5.63;;;1.40;;
54372;SDS011;69157;53.094;10.016;2023-10-08T02:54:17;4.40;;;1.15;;
54372;SDS011;69157;53.094;10.016;2023-10-08T02:56:48;3.38;;;1.50;;
54372;SDS011;69157;53.094;10.016;2023-10-08T02:59:17;6.60;;;1.27;;
54372;SDS011;69157;53.094;10.016;2023-10-08T03:01:45;3.70;;;1.40;;
54372;SDS011;69157;53.094;10.016;2023-10-08T03:04:12;1.75;;;1.10;;
54372;SDS011;69157;53.094;10.016;2023-10-08T03:06:47;4.97;;;1.55;;
54372;SDS011;69157;53.094;10.016;2023-10-08T03:09:18;3.15;;;1.30;;
54372;SDS011;69157;53.094;10.016;2023-10-08T03:11:56;3.20;;;1.45;;
54372;SDS011;69157;53.094;10.016;2023-10-08T03:14:23;4.03;;;1.33;;
54372;SDS011;69157;53.094;10.016;2023-10-08T03:17:01;4.38;;;1.40;;
54372;SDS011;69157;53.094;10.016;2023-10-08T03:19:32;2.47;;;0.95;;
54372;SDS011;69157;53.094;10.016;2023-10-08T03:22:00;2.05;;;1.20;;
54372;SDS011;69157;53.094;10.016;2023-10-08T03:24:29;3.78;;;1.23;;
54372;SDS011;69157;53.094;10.016;2023-10-08T03:27:02;4.15;;;1.70;;
54372;SDS011;69157;53.094;10.016;2023-10-08T03:29:35;5.23;;;1.90;;
54372;SDS011;69157;53.094;10.016;2023-10-08T03:32:13;3.22;;;1.20;;
54372;SDS011;69157;53.094;10.016;2023-10-08T03:34:49;2.80;;;1.77;;
54372;SDS011;69157;53.094;10.016;2023-10-08T03:37:20;3.53;;;1.30;;
54372;SDS011;69157;53.094;10.016;2023-10-08T03:39:47;5.22;;;1.70;;
54372;SDS011;69157;53.094;10.016;2023-10-08T03:42:23;3.40;;;1.65;;
54372;SDS011;69157;53.094;10.016;2023-10-08T03:44:50;3.13;;;1.50;;
54372;SDS011;69157;53.094;10.016;2023-10-08T03:47:21;2.08;;;1.35;;
54372;SDS011;69157;53.094;10.016;2023-10-08T03:49:51;4.00;;;1.55;;
54372;SDS011;69157;53.094;10.016;2023-10-08T03:52:19;3.22;;;1.58;;
54372;SDS011;69157;53.094;10.016;2023-10-08T03:54:51;5.97;;;1.50;;
54372;SDS011;69157;53.094;10.016;2023-10-08T03:57:32;5.05;;;1.52;;
54372;SDS011;69157;53.094;10.016;2023-10-08T04:00:10;3.90;;;1.23;;
54372;SDS011;69157;53.094;10.016;2023-10-08T04:02:53;7.18;;;1.55;;
54372;SDS011;69157;53.094;10.016;2023-10-08T04:05:23;2.28;;;1.25;;
54372;SDS011;69157;53.094;10.016;2023-10-08T04:07:53;3.15;;;1.38;;
54372;SDS011;69157;53.094;10.016;2023-10-08T04:10:25;3.65;;;1.67;;
54372;SDS011;69157;53.094;10.016;2023-10-08T04:13:04;7.90;;;1.73;;
54372;SDS011;69157;53.094;10.016;2023-10-08T04:15:34;5.38;;;1.63;;
54372;SDS011;69157;53.094;10.016;2023-10-08T04:18:03;5.22;;;1.73;;
54372;SDS011;69157;53.094;10.016;2023-10-08T04:20:29;4.97;;;1.40;;
54372;SDS011;69157;53.094;10.016;2023-10-08T04:23:01;3.17;;;1.40;;
54372;SDS011;69157;53.094;10.016;2023-10-08T04:25:29;4.60;;;1.50;;
54372;SDS011;69157;53.094;10.016;2023-10-08T04:27:59;3.47;;;1.90;;
54372;SDS011;69157;53.094;10.016;2023-10-08T04:30:26;3.43;;;1.83;;
54372;SDS011;69157;53.094;10.016;2023-10-08T04:33:01;5.70;;;1.77;;
54372;SDS011;69157;53.094;10.016;2023-10-08T04:35:32;5.65;;;1.80;;
54372;SDS011;69157;53.094;10.016;2023-10-08T04:38:01;2.33;;;1.33;;
54372;SDS011;69157;53.094;10.016;2023-10-08T04:40:28;1.40;;;1.25;;
54372;SDS011;69157;53.094;10.016;2023-10-08T04:45:27;8.10;;;1.52;;
54372;SDS011;69157;53.094;10.016;2023-10-08T04:47:59;4.32;;;1.17;;
54372;SDS011;69157;53.094;10.016;2023-10-08T04:50:25;5.68;;;1.55;;
54372;SDS011;69157;53.094;10.016;2023-10-08T04:52:55;4.50;;;2.05;;
54372;SDS011;69157;53.094;10.016;2023-10-08T04:55:24;3.30;;;1.67;;
54372;SDS011;69157;53.094;10.016;2023-10-08T04:57:54;2.88;;;1.95;;
54372;SDS011;69157;53.094;10.016;2023-10-08T05:00:21;6.22;;;1.63;;
54372;SDS011;69157;53.094;10.016;2023-10-08T05:03:06;2.90;;;1.65;;
54372;SDS011;69157;53.094;10.016;2023-10-08T05:05:39;2.53;;;1.50;;
54372;SDS011;69157;53.094;10.016;2023-10-08T05:08:24;2.30;;;1.60;;
54372;SDS011;69157;53.094;10.016;2023-10-08T05:10:57;2.90;;;1.95;;
54372;SDS011;69157;53.094;10.016;2023-10-08T05:13:40;4.22;;;2.08;;
54372;SDS011;69157;53.094;10.016;2023-10-08T05:16:32;4.57;;;1.58;;
54372;SDS011;69157;53.094;10.016;2023-10-08T05:19:08;5.78;;;2.15;;
54372;SDS011;69157;53.094;10.016;2023-10-08T05:21:55;5.57;;;1.63;;
54372;SDS011;69157;53.094;10.016;2023-10-08T05:24:42;2.70;;;1.73;;
54372;SDS011;69157;53.094;10.016;2023-10-08T05:27:16;4.35;;;1.48;;
54372;SDS011;69157;53.094;10.016;2023-10-08T05:30:03;5.70;;;1.60;;
54372;SDS011;69157;53.094;10.016;2023-10-08T05:32:52;4.93;;;1.80;;
54372;SDS011;69157;53.094;10.016;2023-10-08T05:35:40;2.70;;;1.92;;
54372;SDS011;69157;53.094;10.016;2023-10-08T05:38:07;6.97;;;1.75;;
54372;SDS011;69157;53.094;10.016;2023-10-08T05:40:52;4.70;;;1.90;;
54372;SDS011;69157;53.094;10.016;2023-10-08T05:43:22;2.88;;;1.80;;
54372;SDS011;69157;53.094;10.016;2023-10-08T05:46:11;5.10;;;1.77;;
54372;SDS011;69157;53.094;10.016;2023-10-08T05:48:50;3.22;;;1.75;;
54372;SDS011;69157;53.094;10.016;2023-10-08T05:51:37;5.15;;;2.10;;
54372;SDS011;69157;53.094;10.016;2023-10-08T05:56:58;6.88;;;2.00;;
54372;SDS011;69157;53.094;10.016;2023-10-08T05:59:50;5.57;;;1.73;;
54372;SDS011;69157;53.094;10.016;2023-10-08T06:02:23;3.10;;;1.73;;
54372;SDS011;69157;53.094;10.016;2023-10-08T06:05:04;5.93;;;1.77;;
54372;SDS011;69157;53.094;10.016;2023-10-08T06:10:29;4.05;;;1.80;;
54372;SDS011;69157;53.094;10.016;2023-10-08T06:13:05;2.40;;;1.58;;
54372;SDS011;69157;53.094;10.016;2023-10-08T06:15:38;4.30;;;1.80;;
54372;SDS011;69157;53.094;10.016;2023-10-08T06:18:19;5.38;;;1.60;;
54372;SDS011;69157;53.094;10.016;2023-10-08T06:20:50;6.40;;;2.13;;
54372;SDS011;69157;53.094;10.016;2023-10-08T06:23:19;6.35;;;1.45;;
54372;SDS011;69157;53.094;10.016;2023-10-08T06:25:49;4.35;;;1.73;;
54372;SDS011;69157;53.094;10.016;2023-10-08T06:28:23;4.25;;;1.58;;
54372;SDS011;69157;53.094;10.016;2023-10-08T06:30:53;2.80;;;1.48;;
54372;SDS011;69157;53.094;10.016;2023-10-08T06:33:20;5.20;;;1.75;;
54372;SDS011;69157;53.094;10.016;2023-10-08T06:35:47;6.22;;;1.90;;
54372;SDS011;69157;53.094;10.016;2023-10-08T06:38:32;4.40;;;1.75;;
54372;SDS011;69157;53.094;10.016;2023-10-08T06:40:59;4.00;;;1.70;;
54372;SDS011;69157;53.094;10.016;2023-10-08T06:43:28;5.95;;;2.40;;
54372;SDS011;69157;53.094;10.016;2023-10-08T06:45:54;5.32;;;1.70;;
54372;SDS011;69157;53.094;10.016;2023-10-08T06:48:23;2.05;;;1.10;;
54372;SDS011;69157;53.094;10.016;2023-10-08T06:50:50;3.00;;;1.50;;
54372;SDS011;69157;53.094;10.016;2023-10-08T06:53:17;2.28;;;1.13;;
54372;SDS011;69157;53.094;10.016;2023-10-08T06:55:44;3.33;;;1.63;;
54372;SDS011;69157;53.094;10.016;2023-10-08T06:58:13;2.78;;;1.60;;
54372;SDS011;69157;53.094;10.016;2023-10-08T07:00:41;3.78;;;1.33;;
54372;SDS011;69157;53.094;10.016;2023-10-08T07:03:14;3.70;;;1.38;;
54372;SDS011;69157;53.094;10.016;2023-10-08T07:05:41;2.10;;;1.23;;
54372;SDS011;69157;53.094;10.016;2023-10-08T07:08:09;4.25;;;1.30;;
54372;SDS011;69157;53.094;10.016;2023-10-08T07:10:38;5.75;;;1.50;;
54372;SDS011;69157;53.094;10.016;2023-10-08T07:13:06;4.18;;;1.17;;
54372;SDS011;69157;53.094;10.016;2023-10-08T07:15:33;1.83;;;1.00;;
54372;SDS011;69157;53.094;10.016;2023-10-08T07:20:35;4.85;;;1.33;;
54372;SDS011;69157;53.094;10.016;2023-10-08T07:23:10;2.53;;;1.23;;
54372;SDS011;69157;53.094;10.016;2023-10-08T07:25:53;2.17;;;1.25;;
54372;SDS011;69157;53.094;10.016;2023-10-08T07:28:25;2.55;;;1.27;;
54372;SDS011;69157;53.094;10.016;2023-10-08T07:30:51;1.75;;;1.00;;
54372;SDS011;69157;53.094;10.016;2023-10-08T07:33:18;3.38;;;1.10;;
54372;SDS011;69157;53.094;10.016;2023-10-08T07:35:45;2.65;;;1.00;;
54372;SDS011;69157;53.094;10.016;2023-10-08T07:38:22;2.55;;;1.10;;
54372;SDS011;69157;53.094;10.016;2023-10-08T07:40:48;2.47;;;1.17;;
54372;SDS011;69157;53.094;10.016;2023-10-08T07:43:15;1.80;;;0.90;;
54372;SDS011;69157;53.094;10.016;2023-10-08T07:45:45;5.72;;;1.10;;
54372;SDS011;69157;53.094;10.016;2023-10-08T07:48:11;0.90;;;0.77;;
54372;SDS011;69157;53.094;10.016;2023-10-08T07:50:45;2.30;;;0.73;;
54372;SDS011;69157;53.094;10.016;2023-10-08T07:53:12;1.80;;;0.80;;
54372;SDS011;69157;53.094;10.016;2023-10-08T07:55:43;2.20;;;0.88;;
54372;SDS011;69157;53.094;10.016;2023-10-08T07:58:10;3.10;;;0.93;;
54372;SDS011;69157;53.094;10.016;2023-10-08T08:00:36;2.05;;;0.70;;
54372;SDS011;69157;53.094;10.016;2023-10-08T08:03:04;2.08;;;0.80;;
54372;SDS011;69157;53.094;10.016;2023-10-08T08:05:30;1.35;;;1.08;;
54372;SDS011;69157;53.094;10.016;2023-10-08T08:07:58;3.33;;;0.90;;
54372;SDS011;69157;53.094;10.016;2023-10-08T08:10:31;1.85;;;0.80;;
54372;SDS011;69157;53.094;10.016;2023-10-08T08:13:03;2.40;;;0.70;;
54372;SDS011;69157;53.094;10.016;2023-10-08T08:15:31;1.73;;;0.70;;
54372;SDS011;69157;53.094;10.016;2023-10-08T08:17:58;3.60;;;0.95;;
54372;SDS011;69157;53.094;10.016;2023-10-08T08:20:25;2.78;;;0.88;;
54372;SDS011;69157;53.094;10.016;2023-10-08T08:23:04;3.85;;;0.57;;
54372;SDS011;69157;53.094;10.016;2023-10-08T08:25:41;1.83;;;0.70;;
54372;SDS011;69157;53.094;10.016;2023-10-08T08:28:14;2.40;;;0.82;;
54372;SDS011;69157;53.094;10.016;2023-10-08T08:30:45;0.77;;;0.50;;
54372;SDS011;69157;53.094;10.016;2023-10-08T08:33:12;1.40;;;0.70;;
54372;SDS011;69157;53.094;10.016;2023-10-08T08:35:41;0.75;;;0.52;;
54372;SDS011;69157;53.094;10.016;2023-10-08T08:38:10;3.00;;;0.60;;
54372;SDS011;69157;53.094;10.016;2023-10-08T08:40:37;1.50;;;0.28;;
54372;SDS011;69157;53.094;10.016;2023-10-08T08:43:04;3.35;;;0.57;;
54372;SDS011;69157;53.094;10.016;2023-10-08T08:45:31;1.27;;;0.60;;
54372;SDS011;69157;53.094;10.016;2023-10-08T08:47:58;0.63;;;0.43;;
54372;SDS011;69157;53.094;10.016;2023-10-08T08:50:25;0.40;;;0.40;;
54372;SDS011;69157;53.094;10.016;2023-10-08T08:52:54;1.92;;;0.60;;
54372;SDS011;69157;53.094;10.016;2023-10-08T08:55:21;0.35;;;0.30;;
54372;SDS011;69157;53.094;10.016;2023-10-08T08:57:47;0.90;;;0.40;;
54372;SDS011;69157;53.094;10.016;2023-10-08T09:00:15;0.50;;;0.45;;
54372;SDS011;69157;53.094;10.016;2023-10-08T09:02:42;4.43;;;0.70;;
54372;SDS011;69157;53.094;10.016;2023-10-08T09:05:10;4.05;;;0.50;;
54372;SDS011;69157;53.094;10.016;2023-10-08T09:10:21;1.50;;;0.70;;
54372;SDS011;69157;53.094;10.016;2023-10-08T09:12:53;1.85;;;0.50;;
54372;SDS011;69157;53.094;10.016;2023-10-08T09:15:23;1.87;;;0.90;;
54372;SDS011;69157;53.094;10.016;2023-10-08T09:17:51;6.60;;;0.47;;
54372;SDS011;69157;53.094;10.016;2023-10-08T09:20:17;0.50;;;0.40;;
54372;SDS011;69157;53.094;10.016;2023-10-08T09:22:45;0.47;;;0.30;;
54372;SDS011;69157;53.094;10.016;2023-10-08T09:25:17;0.47;;;0.40;;
54372;SDS011;69157;53.094;10.016;2023-10-08T09:27:50;0.65;;;0.57;;
54372;SDS011;69157;53.094;10.016;2023-10-08T09:30:17;0.98;;;0.50;;
54372;SDS011;69157;53.094;10.016;2023-10-08T09:32:44;2.95;;;0.40;;
54372;SDS011;69157;53.094;10.016;2023-10-08T09:35:10;3.05;;;0.50;;
54372;SDS011;69157;53.094;10.016;2023-10-08T09:37:38;1.02;;;0.40;;
54372;SDS011;69157;53.094;10.016;2023-10-08T09:40:05;0.32;;;0.30;;
54372;SDS011;69157;53.094;10.016;2023-10-08T09:42:35;4.17;;;0.60;;
54372;SDS011;69157;53.094;10.016;2023-10-08T09:45:01;5.28;;;0.55;;
54372;SDS011;69157;53.094;10.016;2023-10-08T09:47:31;3.72;;;0.32;;
54372;SDS011;69157;53.094;10.016;2023-10-08T09:50:00;1.40;;;0.50;;
54372;SDS011;69157;53.094;10.016;2023-10-08T09:52:33;1.95;;;0.30;;
54372;SDS011;69157;53.094;10.016;2023-10-08T09:55:00;1.35;;;0.60;;
54372;SDS011;69157;53.094;10.016;2023-10-08T09:57:28;1.30;;;0.40;;
54372;SDS011;69157;53.094;10.016;2023-10-08T09:59:55;3.17;;;0.80;;
54372;SDS011;69157;53.094;10.016;2023-10-08T10:02:23;1.50;;;0.40;;
54372;SDS011;69157;53.094;10.016;2023-10-08T10:04:52;2.50;;;0.60;;
54372;SDS011;69157;53.094;10.016;2023-10-08T10:07:18;0.50;;;0.30;;
54372;SDS011;69157;53.094;10.016;2023-10-08T10:09:54;2.38;;;0.55;;
54372;SDS011;69157;53.094;10.016;2023-10-08T10:12:24;0.98;;;0.50;;
54372;SDS011;69157;53.094;10.016;2023-10-08T10:14:52;3.60;;;0.53;;
54372;SDS011;69157;53.094;10.016;2023-10-08T10:17:22;0.40;;;0.40;;
54372;SDS011;69157;53.094;10.016;2023-10-08T10:19:53;1.70;;;0.60;;
54372;SDS011;69157;53.094;10.016;2023-10-08T10:22:34;0.65;;;0.50;;
54372;SDS011;69157;53.094;10.016;2023-10-08T10:25:03;0.47;;;0.47;;
54372;SDS011;69157;53.094;10.016;2023-10-08T10:28:21;1.65;;;0.40;;
54372;SDS011;69157;53.094;10.016;2023-10-08T10:30:25;2.60;;;0.45;;
54372;SDS011;69157;53.094;10.016;2023-10-08T10:32:53;0.60;;;0.50;;
54372;SDS011;69157;53.094;10.016;2023-10-08T10:35:19;1.63;;;0.47;;
54372;SDS011;69157;53.094;10.016;2023-10-08T10:37:46;1.67;;;0.43;;
54372;SDS011;69157;53.094;10.016;2023-10-08T10:40:23;0.93;;;0.47;;
54372;SDS011;69157;53.094;10.016;2023-10-08T10:43:05;1.65;;;0.32;;
54372;SDS011;69157;53.094;10.016;2023-10-08T10:45:32;1.27;;;0.38;;
54372;SDS011;69157;53.094;10.016;2023-10-08T10:48:04;1.30;;;0.30;;
54372;SDS011;69157;53.094;10.016;2023-10-08T10:50:48;1.70;;;0.50;;
54372;SDS011;69157;53.094;10.016;2023-10-08T10:53:33;0.55;;;0.30;;
54372;SDS011;69157;53.094;10.016;2023-10-08T10:56:11;2.92;;;0.57;;
54372;SDS011;69157;53.094;10.016;2023-10-08T10:58:43;0.40;;;0.40;;
54372;SDS011;69157;53.094;10.016;2023-10-08T11:01:09;0.70;;;0.30;;
54372;SDS011;69157;53.094;10.016;2023-10-08T11:03:51;2.58;;;0.45;;
54372;SDS011;69157;53.094;10.016;2023-10-08T11:06:17;0.47;;;0.40;;
54372;SDS011;69157;53.094;10.016;2023-10-08T11:08:48;2.10;;;0.70;;
54372;SDS011;69157;53.094;10.016;2023-10-08T11:11:16;1.00;;;0.47;;
54372;SDS011;69157;53.094;10.016;2023-10-08T11:13:43;0.43;;;0.30;;
54372;SDS011;69157;53.094;10.016;2023-10-08T11:16:15;0.30;;;0.30;;
54372;SDS011;69157;53.094;10.016;2023-10-08T11:18:43;1.05;;;0.40;;
54372;SDS011;69157;53.094;10.016;2023-10-08T11:21:12;1.38;;;0.50;;
54372;SDS011;69157;53.094;10.016;2023-10-08T11:23:50;1.05;;;0.40;;
54372;SDS011;69157;53.094;10.016;2023-10-08T11:26:25;2.75;;;0.40;;
54372;SDS011;69157;53.094;10.016;2023-10-08T11:28:57;0.57;;;0.20;;
54372;SDS011;69157;53.094;10.016;2023-10-08T11:31:26;1.75;;;0.30;;
54372;SDS011;69157;53.094;10.016;2023-10-08T11:33:58;2.78;;;0.50;;
54372;SDS011;69157;53.094;10.016;2023-10-08T11:36:24;0.35;;;0.30;;
54372;SDS011;69157;53.094;10.016;2023-10-08T11:38:53;0.52;;;0.40;;
54372;SDS011;69157;53.094;10.016;2023-10-08T11:41:25;0.55;;;0.45;;
54372;SDS011;69157;53.094;10.016;2023-10-08T11:43:53;1.58;;;0.50;;
54372;SDS011;69157;53.094;10.016;2023-10-08T11:46:25;0.43;;;0.43;;
54372;SDS011;69157;53.094;10.016;2023-10-08T11:48:53;0.73;;;0.40;;
54372;SDS011;69157;53.094;10.016;2023-10-08T11:51:23;0.85;;;0.40;;
54372;SDS011;69157;53.094;10.016;2023-10-08T11:53:49;0.98;;;0.52;;
54372;SDS011;69157;53.094;10.016;2023-10-08T11:56:16;1.98;;;0.65;;
54372;SDS011;69157;53.094;10.016;2023-10-08T11:58:44;0.40;;;0.35;;
54372;SDS011;69157;53.094;10.016;2023-10-08T12:01:11;3.47;;;0.57;;
54372;SDS011;69157;53.094;10.016;2023-10-08T12:03:41;3.00;;;0.47;;
54372;SDS011;69157;53.094;10.016;2023-10-08T12:06:08;1.85;;;0.45;;
54372;SDS011;69157;53.094;10.016;2023-10-08T12:08:36;1.35;;;0.57;;
54372;SDS011;69157;53.094;10.016;2023-10-08T12:11:04;0.80;;;0.38;;
54372;SDS011;69157;53.094;10.016;2023-10-08T12:13:36;0.43;;;0.38;;
54372;SDS011;69157;53.094;10.016;2023-10-08T12:16:03;1.35;;;0.30;;
54372;SDS011;69157;53.094;10.016;2023-10-08T12:18:37;0.28;;;0.25;;
54372;SDS011;69157;53.094;10.016;2023-10-08T12:21:07;0.38;;;0.35;;
54372;SDS011;69157;53.094;10.016;2023-10-08T12:23:39;0.85;;;0.35;;
54372;SDS011;69157;53.094;10.016;2023-10-08T12:26:08;0.50;;;0.40;;
54372;SDS011;69157;53.094;10.016;2023-10-08T12:28:34;1.52;;;0.60;;
54372;SDS011;69157;53.094;10.016;2023-10-08T12:31:01;0.43;;;0.40;;
54372;SDS011;69157;53.094;10.016;2023-10-08T12:33:28;0.30;;;0.30;;
54372;SDS011;69157;53.094;10.016;2023-10-08T12:35:55;0.55;;;0.45;;
54372;SDS011;69157;53.094;10.016;2023-10-08T12:38:22;0.40;;;0.40;;
54372;SDS011;69157;53.094;10.016;2023-10-08T12:40:48;0.70;;;0.40;;
54372;SDS011;69157;53.094;10.016;2023-10-08T12:43:21;1.13;;;0.43;;
54372;SDS011;69157;53.094;10.016;2023-10-08T12:45:48;1.70;;;0.30;;
54372;SDS011;69157;53.094;10.016;2023-10-08T12:48:27;0.40;;;0.35;;
54372;SDS011;69157;53.094;10.016;2023-10-08T12:50:53;0.40;;;0.40;;
54372;SDS011;69157;53.094;10.016;2023-10-08T12:53:23;0.40;;;0.30;;
54372;SDS011;69157;53.094;10.016;2023-10-08T12:55:52;1.67;;;0.30;;
54372;SDS011;69157;53.094;10.016;2023-10-08T12:58:23;1.55;;;0.45;;
54372;SDS011;69157;53.094;10.016;2023-10-08T13:00:54;0.55;;;0.40;;
54372;SDS011;69157;53.094;10.016;2023-10-08T13:03:28;0.30;;;0.30;;
54372;SDS011;69157;53.094;10.016;2023-10-08T13:05:56;1.27;;;0.35;;
54372;SDS011;69157;53.094;10.016;2023-10-08T13:08:30;0.50;;;0.50;;
54372;SDS011;69157;53.094;10.016;2023-10-08T13:10:56;2.30;;;0.45;;
54372;SDS011;69157;53.094;10.016;2023-10-08T13:13:26;1.83;;;0.43;;
54372;SDS011;69157;53.094;10.016;2023-10-08T13:15:52;0.30;;;0.30;;
54372;SDS011;69157;53.094;10.016;2023-10-08T13:18:21;0.30;;;0.30;;
54372;SDS011;69157;53.094;10.016;2023-10-08T13:20:50;0.60;;;0.40;;
54372;SDS011;69157;53.094;10.016;2023-10-08T13:23:16;0.38;;;0.35;;
54372;SDS011;69157;53.094;10.016;2023-10-08T13:25:45;1.55;;;0.40;;
54372;SDS011;69157;53.094;10.016;2023-10-08T13:28:16;0.47;;;0.30;;
54372;SDS011;69157;53.094;10.016;2023-10-08T13:30:46;1.33;;;0.57;;
54372;SDS011;69157;53.094;10.016;2023-10-08T13:33:12;1.10;;;0.30;;
54372;SDS011;69157;53.094;10.016;2023-10-08T13:35:38;0.73;;;0.50;;
54372;SDS011;69157;53.094;10.016;2023-10-08T13:38:04;0.32;;;0.32;;
54372;SDS011;69157;53.094;10.016;2023-10-08T13:40:35;0.73;;;0.30;;
54372;SDS011;69157;53.094;10.016;2023-10-08T13:45:31;1.38;;;0.38;;
54372;SDS011;69157;53.094;10.016;2023-10-08T13:48:03;0.35;;;0.32;;
54372;SDS011;69157;53.094;10.016;2023-10-08T13:50:30;0.90;;;0.38;;
54372;SDS011;69157;53.094;10.016;2023-10-08T13:52:56;0.77;;;0.30;;
54372;SDS011;69157;53.094;10.016;2023-10-08T13:55:23;1.23;;;0.40;;
54372;SDS011;69157;53.094;10.016;2023-10-08T13:57:53;1.80;;;0.70;;
54372;SDS011;69157;53.094;10.016;2023-10-08T14:00:20;2.10;;;0.57;;
54372;SDS011;69157;53.094;10.016;2023-10-08T14:05:18;1.73;;;0.50;;
54372;SDS011;69157;53.094;10.016;2023-10-08T14:07:49;0.55;;;0.40;;
54372;SDS011;69157;53.094;10.016;2023-10-08T14:10:15;0.63;;;0.32;;
54372;SDS011;69157;53.094;10.016;2023-10-08T14:12:46;0.60;;;0.30;;
54372;SDS011;69157;53.094;10.016;2023-10-08T14:15:16;0.70;;;0.40;;
54372;SDS011;69157;53.094;10.016;2023-10-08T14:17:43;1.10;;;0.50;;
54372;SDS011;69157;53.094;10.016;2023-10-08T14:20:13;1.52;;;0.50;;
54372;SDS011;69157;53.094;10.016;2023-10-08T14:22:40;1.20;;;0.55;;
54372;SDS011;69157;53.094;10.016;2023-10-08T14:25:08;2.65;;;0.50;;
54372;SDS011;69157;53.094;10.016;2023-10-08T14:27:37;0.85;;;0.45;;
54372;SDS011;69157;53.094;10.016;2023-10-08T14:30:07;1.63;;;0.30;;
54372;SDS011;69157;53.094;10.016;2023-10-08T14:32:40;1.90;;;0.40;;
54372;SDS011;69157;53.094;10.016;2023-10-08T14:35:11;1.50;;;0.40;;
54372;SDS011;69157;53.094;10.016;2023-10-08T14:37:55;1.80;;;0.70;;
54372;SDS011;69157;53.094;10.016;2023-10-08T14:40:40;1.35;;;0.45;;
54372;SDS011;69157;53.094;10.016;2023-10-08T14:43:25;1.73;;;0.50;;
54372;SDS011;69157;53.094;10.016;2023-10-08T14:45:54;0.88;;;0.43;;
54372;SDS011;69157;53.094;10.016;2023-10-08T14:48:20;1.73;;;0.50;;
54372;SDS011;69157;53.094;10.016;2023-10-08T14:50:47;1.27;;;0.30;;
54372;SDS011;69157;53.094;10.016;2023-10-08T14:53:14;2.38;;;0.63;;
54372;SDS011;69157;53.094;10.016;2023-10-08T14:55:40;0.65;;;0.40;;
54372;SDS011;69157;53.094;10.016;2023-10-08T14:58:07;2.22;;;0.52;;
54372;SDS011;69157;53.094;10.016;2023-10-08T15:00:34;0.52;;;0.40;;
54372;SDS011;69157;53.094;10.016;2023-10-08T15:03:01;1.48;;;0.57;;
54372;SDS011;69157;53.094;10.016;2023-10-08T15:05:30;1.55;;;0.70;;
54372;SDS011;69157;53.094;10.016;2023-10-08T15:07:57;2.67;;;0.55;;
54372;SDS011;69157;53.094;10.016;2023-10-08T15:10:23;0.75;;;0.30;;
54372;SDS011;69157;53.094;10.016;2023-10-08T15:12:50;2.13;;;0.60;;